| time (UTC) | temp C | wind direction | speed KPH | gust KPH | rain 1hr cm | rain 24hr cm | rain mn cm | humidity % | barometer mb |
| 20260506160022 | 15 | 160 | 3.2 | 9.7 | 0.03 | 0.46 | 0.41 | 91 | 1006.0 |
| 20260506155524 | 15 | 223 | 0.0 | 11.3 | 0.03 | 0.46 | 0.41 | 91 | 1006.0 |
| 20260506155022 | 15 | 275 | 1.6 | 11.3 | 0.05 | 0.46 | 0.41 | 91 | 1005.9 |
| 20260506154524 | 15 | 257 | 0.0 | 6.4 | 0.05 | 0.46 | 0.41 | 91 | 1005.9 |
| 20260506154024 | 14 | 275 | 3.2 | 8.0 | 0.05 | 0.46 | 0.41 | 91 | 1005.9 |
| 20260506153520 | 14 | 185 | 0.0 | 14.5 | 0.05 | 0.46 | 0.41 | 90 | 1006.0 |
| 20260506153021 | 14 | 281 | 1.6 | 14.5 | 0.05 | 0.46 | 0.41 | 90 | 1005.9 |
| 20260506152520 | 14 | 337 | 1.6 | 8.0 | 0.08 | 0.46 | 0.41 | 90 | 1005.8 |
| 20260506152019 | 14 | 319 | 0.0 | 3.2 | 0.08 | 0.46 | 0.41 | 91 | 1005.9 |
| 20260506151523 | 14 | 318 | 0.0 | 4.8 | 0.08 | 0.46 | 0.41 | 90 | 1006.0 |
| 20260506151018 | 14 | 321 | 1.6 | 4.8 | 0.05 | 0.43 | 0.38 | 90 | 1006.2 |
| 20260506150518 | 14 | 192 | 0.0 | 6.4 | 0.05 | 0.43 | 0.38 | 91 | 1006.1 |
| 20260506150020 | 14 | 338 | 1.6 | 6.4 | 0.05 | 0.43 | 0.38 | 91 | 1006.0 |
| 20260506145518 | 14 | 29 | 0.0 | 0.0 | 0.05 | 0.43 | 0.38 | 90 | 1006.0 |
| 20260506145017 | 14 | 29 | 0.0 | 0.0 | 0.03 | 0.41 | 0.36 | 90 | 1005.9 |
| 20260506144517 | 13 | 29 | 0.0 | 0.0 | 0.03 | 0.41 | 0.36 | 90 | 1006.0 |
| 20260506144015 | 13 | 29 | 0.0 | 0.0 | 0.05 | 0.41 | 0.36 | 91 | 1005.8 |
| 20260506143514 | 13 | 29 | 0.0 | 0.0 | 0.05 | 0.41 | 0.36 | 90 | 1005.8 |
| 20260506143017 | 13 | 29 | 0.0 | 0.0 | 0.05 | 0.41 | 0.36 | 90 | 1005.8 |
| 20260506142513 | 13 | 30 | 0.0 | 0.0 | 0.05 | 0.38 | 0.33 | 90 | 1006.0 |
| 20260506142015 | 13 | 29 | 0.0 | 0.0 | 0.05 | 0.38 | 0.33 | 90 | 1006.0 |
| 20260506141513 | 13 | 29 | 0.0 | 0.0 | 0.05 | 0.38 | 0.33 | 90 | 1006.0 |
| 20260506141013 | 13 | 29 | 0.0 | 0.0 | 0.08 | 0.38 | 0.33 | 90 | 1006.0 |
| 20260506140513 | 12 | 30 | 0.0 | 0.0 | 0.08 | 0.38 | 0.33 | 90 | 1006.0 |
| 20260506140017 | 12 | 29 | 0.0 | 0.0 | 0.10 | 0.38 | 0.33 | 90 | 1006.1 |
| 20260506135513 | 12 | 29 | 0.0 | 0.0 | 0.13 | 0.38 | 0.33 | 90 | 1006.1 |
| 20260506135010 | 12 | 29 | 0.0 | 0.0 | 0.15 | 0.38 | 0.33 | 89 | 1006.2 |
| 20260506134510 | 12 | 29 | 0.0 | 0.0 | 0.18 | 0.38 | 0.33 | 89 | 1006.2 |
| 20260506134011 | 12 | 29 | 0.0 | 0.0 | 0.18 | 0.36 | 0.30 | 89 | 1006.2 |
| 20260506133509 | 12 | 29 | 0.0 | 0.0 | 0.20 | 0.36 | 0.30 | 89 | 1006.3 |
| 20260506133010 | 12 | 29 | 0.0 | 0.0 | 0.23 | 0.36 | 0.30 | 89 | 1006.4 |
| 20260506132513 | 12 | 29 | 0.0 | 0.0 | 0.23 | 0.33 | 0.28 | 89 | 1006.5 |
| 20260506132006 | 12 | 30 | 0.0 | 0.0 | 0.25 | 0.33 | 0.28 | 89 | 1006.7 |
| 20260506131508 | 12 | 29 | 0.0 | 0.0 | 0.25 | 0.33 | 0.28 | 88 | 1006.7 |
| 20260506131006 | 12 | 29 | 0.0 | 0.0 | 0.23 | 0.30 | 0.25 | 88 | 1006.9 |
| 20260506130506 | 12 | 29 | 0.0 | 0.0 | 0.23 | 0.28 | 0.23 | 88 | 1006.9 |
| 20260506130007 | 12 | 29 | 0.0 | 0.0 | 0.23 | 0.28 | 0.23 | 88 | 1007.0 |
| 20260506125505 | 12 | 29 | 0.0 | 0.0 | 0.20 | 0.28 | 0.20 | 88 | 1007.0 |
| 20260506125005 | 12 | 29 | 0.0 | 0.0 | 0.18 | 0.25 | 0.18 | 88 | 1006.9 |
| 20260506124507 | 12 | 28 | 0.0 | 0.0 | 0.15 | 0.23 | 0.15 | 88 | 1007.0 |
| 20260506124004 | 12 | 28 | 0.0 | 0.0 | 0.13 | 0.20 | 0.13 | 88 | 1007.0 |
| 20260506123504 | 12 | 28 | 0.0 | 0.0 | 0.10 | 0.18 | 0.10 | 88 | 1006.8 |
| 20260506123006 | 12 | 28 | 0.0 | 0.0 | 0.08 | 0.15 | 0.08 | 88 | 1006.6 |
| 20260506122503 | 12 | 28 | 0.0 | 0.0 | 0.05 | 0.13 | 0.05 | 88 | 1006.7 |
| 20260506122004 | 12 | 28 | 0.0 | 0.0 | 0.03 | 0.10 | 0.03 | 88 | 1006.7 |
| 20260506121503 | 12 | 28 | 0.0 | 0.0 | 0.03 | 0.10 | 0.03 | 88 | 1006.7 |
| 20260506121002 | 12 | 28 | 0.0 | 0.0 | 0.03 | 0.10 | 0.03 | 88 | 1006.6 |
| 20260506120503 | 12 | 28 | 0.0 | 0.0 | 0.00 | 0.08 | 0.00 | 88 | 1006.5 |
| 20260506120003 | 12 | 29 | 0.0 | 0.0 | 0.00 | 0.08 | 0.00 | 88 | 1006.5 |
| 20260506115502 | 11 | 82 | 0.0 | 0.0 | 0.00 | 0.10 | 0.00 | 87 | 1006.5 |
| 20260506115002 | 11 | 82 | 0.0 | 0.0 | 0.00 | 0.10 | 0.00 | 87 | 1006.6 |
| 20260506114505 | 11 | 82 | 0.0 | 0.0 | 0.00 | 0.10 | 0.00 | 87 | 1006.7 |
| 20260506114003 | 11 | 82 | 0.0 | 0.0 | 0.00 | 0.10 | 0.00 | 87 | 1006.9 |
| 20260506113600 | 11 | 82 | 0.0 | 0.0 | 0.00 | 0.10 | 0.00 | 87 | 1007.2 |
| 20260506113100 | 11 | 82 | 0.0 | 0.0 | 0.00 | 0.10 | 0.00 | 87 | 1007.0 |
| 20260506112559 | 11 | 82 | 0.0 | 0.0 | 0.00 | 0.10 | 0.00 | 87 | 1007.1 |
| 20260506112058 | 11 | 82 | 0.0 | 0.0 | 0.00 | 0.10 | 0.00 | 87 | 1007.0 |
| 20260506111559 | 11 | 82 | 0.0 | 0.0 | 0.00 | 0.10 | 0.00 | 87 | 1007.1 |
| 20260506111100 | 11 | 82 | 0.0 | 0.0 | 0.00 | 0.10 | 0.00 | 87 | 1007.1 |
| 20260506110559 | 11 | 82 | 0.0 | 0.0 | 0.00 | 0.10 | 0.00 | 87 | 1007.0 |
| 20260506110059 | 11 | 82 | 0.0 | 0.0 | 0.00 | 0.10 | 0.00 | 87 | 1006.9 |
| 20260506105558 | 11 | 82 | 0.0 | 0.0 | 0.00 | 0.10 | 0.00 | 87 | 1006.9 |
| 20260506105100 | 11 | 82 | 0.0 | 0.0 | 0.00 | 0.10 | 0.00 | 87 | 1007.0 |
| 20260506104605 | 11 | 82 | 0.0 | 0.0 | 0.00 | 0.10 | 0.00 | 87 | 1006.9 |
| 20260506104058 | 11 | 82 | 0.0 | 1.6 | 0.00 | 0.10 | 0.00 | 87 | 1006.9 |
| 20260506103556 | 11 | 82 | 0.0 | 1.6 | 0.00 | 0.10 | 0.00 | 86 | 1007.0 |
| 20260506103059 | 11 | 82 | 0.0 | 0.0 | 0.00 | 0.10 | 0.00 | 86 | 1007.0 |
| 20260506102559 | 11 | 82 | 0.0 | 0.0 | 0.00 | 0.10 | 0.00 | 86 | 1006.9 |
| 20260506102056 | 11 | 82 | 0.0 | 0.0 | 0.00 | 0.10 | 0.00 | 86 | 1006.8 |
| 20260506101555 | 11 | 82 | 0.0 | 0.0 | 0.00 | 0.10 | 0.00 | 85 | 1006.6 |
| 20260506101055 | 11 | 82 | 0.0 | 0.0 | 0.00 | 0.10 | 0.00 | 85 | 1006.5 |
| 20260506100555 | 11 | 82 | 0.0 | 0.0 | 0.00 | 0.10 | 0.00 | 85 | 1006.6 |
| 20260506100109 | 11 | 82 | 0.0 | 0.0 | 0.00 | 0.10 | 0.00 | 85 | 1006.5 |
| 20260506095554 | 11 | 82 | 0.0 | 0.0 | 0.00 | 0.10 | 0.00 | 85 | 1006.4 |
| 20260506095056 | 11 | 82 | 0.0 | 0.0 | 0.00 | 0.10 | 0.00 | 85 | 1006.5 |
| 20260506094554 | 12 | 82 | 0.0 | 0.0 | 0.00 | 0.10 | 0.00 | 85 | 1006.6 |
| 20260506094053 | 12 | 82 | 0.0 | 0.0 | 0.00 | 0.10 | 0.00 | 85 | 1006.6 |
| 20260506093554 | 12 | 82 | 0.0 | 0.0 | 0.00 | 0.10 | 0.00 | 85 | 1006.6 |
| 20260506093056 | 12 | 82 | 0.0 | 0.0 | 0.00 | 0.10 | 0.00 | 85 | 1006.6 |
| 20260506092553 | 12 | 82 | 0.0 | 1.6 | 0.00 | 0.10 | 0.00 | 85 | 1006.6 |
| 20260506092052 | 12 | 82 | 0.0 | 1.6 | 0.00 | 0.10 | 0.00 | 85 | 1006.7 |
| 20260506091555 | 12 | 82 | 0.0 | 0.0 | 0.00 | 0.10 | 0.00 | 85 | 1006.7 |
| 20260506091049 | 12 | 82 | 0.0 | 0.0 | 0.00 | 0.10 | 0.00 | 85 | 1006.7 |
| 20260506090550 | 12 | 82 | 0.0 | 3.2 | 0.00 | 0.10 | 0.00 | 84 | 1006.8 |
| 20260506090049 | 12 | 82 | 0.0 | 3.2 | 0.00 | 0.10 | 0.00 | 84 | 1006.8 |
| 20260506085548 | 12 | 82 | 0.0 | 0.0 | 0.00 | 0.10 | 0.00 | 84 | 1006.9 |
| 20260506085150 | 12 | 82 | 0.0 | 0.0 | 0.00 | 0.10 | 0.00 | 84 | 1006.9 |
| 20260506084548 | 12 | 82 | 0.0 | 0.0 | 0.00 | 0.10 | 0.00 | 84 | 1007.1 |
| 20260506084048 | 12 | 82 | 0.0 | 1.6 | 0.00 | 0.10 | 0.00 | 84 | 1007.1 |
| 20260506083549 | 12 | 82 | 0.0 | 1.6 | 0.00 | 0.10 | 0.00 | 84 | 1007.3 |
| 20260506083047 | 12 | 82 | 0.0 | 4.8 | 0.00 | 0.10 | 0.00 | 84 | 1007.3 |
| 20260506082546 | 12 | 82 | 0.0 | 6.4 | 0.00 | 0.10 | 0.00 | 84 | 1007.4 |
| 20260506082046 | 12 | 217 | 1.6 | 6.4 | 0.00 | 0.10 | 0.00 | 84 | 1007.5 |
| 20260506081548 | 12 | 56 | 0.0 | 0.0 | 0.00 | 0.10 | 0.00 | 83 | 1007.3 |
| 20260506081048 | 12 | 56 | 0.0 | 0.0 | 0.00 | 0.10 | 0.00 | 84 | 1007.3 |
| 20260506080546 | 12 | 56 | 0.0 | 0.0 | 0.00 | 0.10 | 0.00 | 84 | 1007.2 |
| 20260506073044 | 12 | 53 | 0.0 | 0.0 | 0.00 | 0.10 | 0.00 | 83 | 1007.2 |
| 20260506072544 | 12 | 53 | 0.0 | 0.0 | 0.00 | 0.10 | 0.00 | 83 | 1007.2 |
| 20260506072044 | 12 | 53 | 0.0 | 0.0 | 0.00 | 0.10 | 0.00 | 83 | 1007.2 |
| 20260506071549 | 12 | 61 | 0.0 | 0.0 | 0.00 | 0.10 | 0.00 | 83 | 1007.2 |
| 20260506071042 | 12 | 61 | 0.0 | 0.0 | 0.00 | 0.10 | 0.00 | 83 | 1007.1 |
| 20260506070546 | 12 | 61 | 0.0 | 0.0 | 0.00 | 0.10 | 0.00 | 83 | 1007.1 |
| 20260506062039 | 12 | 61 | 0.0 | 0.0 | 0.00 | 0.10 | 0.00 | 82 | 1007.6 |
| 20260506061535 | 12 | 61 | 0.0 | 0.0 | 0.00 | 0.10 | 0.00 | 82 | 1007.7 |
| 20260506061037 | 12 | 61 | 0.0 | 0.0 | 0.00 | 0.10 | 0.00 | 82 | 1007.8 |
| 20260506060534 | 12 | 61 | 0.0 | 0.0 | 0.00 | 0.10 | 0.00 | 82 | 1007.9 |
| 20260506051027 | 12 | 62 | 0.0 | 0.0 | 0.00 | 0.10 | 0.00 | 81 | 1008.6 |
| 20260506050526 | 12 | 62 | 0.0 | 0.0 | 0.00 | 0.10 | 0.00 | 80 | 1008.6 |
| 20260506045024 | 13 | 62 | 0.0 | 0.0 | 0.00 | 0.10 | 0.00 | 78 | 1008.8 |
| 20260506044530 | 13 | 62 | 0.0 | 0.0 | 0.00 | 0.10 | 0.00 | 78 | 1008.7 |
| 20260506044023 | 13 | 62 | 0.0 | 0.0 | 0.00 | 0.10 | 0.00 | 78 | 1008.8 |
| 20260506043523 | 13 | 62 | 0.0 | 0.0 | 0.00 | 0.10 | 0.00 | 78 | 1008.7 |
| 20260506043025 | 13 | 62 | 0.0 | 0.0 | 0.00 | 0.10 | 0.00 | 78 | 1008.8 |
| 20260506042524 | 13 | 62 | 0.0 | 0.0 | 0.00 | 0.10 | 0.00 | 78 | 1008.8 |
| 20260506042022 | 13 | 62 | 0.0 | 0.0 | 0.00 | 0.10 | 0.00 | 78 | 1008.8 |
| 20260506041521 | 13 | 62 | 0.0 | 0.0 | 0.00 | 0.10 | 0.00 | 78 | 1008.8 |
| 20260506041020 | 13 | 62 | 0.0 | 0.0 | 0.00 | 0.10 | 0.00 | 77 | 1008.8 |
| 20260506040519 | 13 | 62 | 0.0 | 0.0 | 0.00 | 0.10 | 0.00 | 77 | 1008.8 |
| 20260506040017 | 13 | 62 | 0.0 | 0.0 | 0.00 | 0.10 | 0.00 | 77 | 1009.0 |
| 20260506035521 | 13 | 62 | 0.0 | 0.0 | 0.00 | 0.10 | 0.10 | 76 | 1009.0 |
| 20260506035018 | 13 | 62 | 0.0 | 0.0 | 0.00 | 0.10 | 0.10 | 76 | 1009.1 |
| 20260506034519 | 14 | 62 | 0.0 | 1.6 | 0.00 | 0.10 | 0.10 | 76 | 1009.0 |
| 20260506034018 | 14 | 62 | 0.0 | 1.6 | 0.00 | 0.10 | 0.10 | 75 | 1009.2 |
| 20260506033517 | 14 | 67 | 0.0 | 0.0 | 0.00 | 0.10 | 0.10 | 75 | 1009.3 |
| 20260506033018 | 14 | 69 | 0.0 | 0.0 | 0.00 | 0.10 | 0.10 | 74 | 1009.5 |
| 20260506032516 | 14 | 69 | 0.0 | 1.6 | 0.00 | 0.10 | 0.10 | 74 | 1009.5 |
| 20260506032016 | 15 | 69 | 0.0 | 4.8 | 0.00 | 0.10 | 0.10 | 74 | 1009.5 |
| 20260506031527 | 15 | 69 | 0.0 | 9.7 | 0.00 | 0.10 | 0.10 | 74 | 1009.4 |
| 20260506031016 | 15 | 28 | 3.2 | 9.7 | 0.00 | 0.10 | 0.10 | 74 | 1009.1 |
| 20260506030519 | 15 | 304 | 0.0 | 9.7 | 0.00 | 0.10 | 0.10 | 74 | 1009.3 |
| 20260506030040 | 15 | 57 | 0.0 | 6.4 | 0.00 | 0.10 | 0.10 | 74 | 1009.5 |
| 20260506025515 | 15 | 53 | 3.2 | 9.7 | 0.00 | 0.10 | 0.10 | 75 | 1009.4 |
| 20260506025017 | 15 | 56 | 4.8 | 9.7 | 0.00 | 0.10 | 0.10 | 76 | 1009.2 |
| 20260506024524 | 15 | 24 | 4.8 | 9.7 | 0.00 | 0.10 | 0.10 | 77 | 1009.0 |
| 20260506024014 | 16 | 308 | 1.6 | 9.7 | 0.00 | 0.10 | 0.10 | 77 | 1009.3 |
| 20260506023514 | 16 | 230 | 3.2 | 11.3 | 0.00 | 0.10 | 0.10 | 78 | 1009.3 |
| 20260506023013 | 16 | 281 | 3.2 | 12.9 | 0.00 | 0.10 | 0.10 | 79 | 1009.2 |
| 20260506022512 | 16 | 355 | 3.2 | 12.9 | 0.00 | 0.10 | 0.10 | 80 | 1009.0 |
| 20260506022011 | 16 | 22 | 0.0 | 9.7 | 0.00 | 0.10 | 0.10 | 80 | 1008.9 |
| 20260506021512 | 16 | 24 | 3.2 | 9.7 | 0.00 | 0.10 | 0.10 | 80 | 1008.8 |
| 20260506021012 | 16 | 46 | 0.0 | 4.8 | 0.00 | 0.10 | 0.10 | 80 | 1008.9 |
| 20260506020515 | 16 | 44 | 0.0 | 1.6 | 0.00 | 0.10 | 0.10 | 80 | 1008.8 |
| 20260506020010 | 16 | 44 | 0.0 | 1.6 | 0.00 | 0.10 | 0.10 | 80 | 1008.7 |
| 20260506015514 | 16 | 44 | 0.0 | 0.0 | 0.00 | 0.10 | 0.10 | 80 | 1008.5 |
| 20260506015010 | 16 | 44 | 0.0 | 0.0 | 0.00 | 0.10 | 0.10 | 80 | 1008.4 |
| 20260506014509 | 16 | 44 | 0.0 | 4.8 | 0.00 | 0.10 | 0.10 | 80 | 1008.5 |
| 20260506014008 | 16 | 44 | 0.0 | 4.8 | 0.00 | 0.10 | 0.10 | 80 | 1008.5 |
| 20260506013506 | 16 | 43 | 0.0 | 3.2 | 0.00 | 0.10 | 0.10 | 81 | 1008.4 |
| 20260506013006 | 16 | 42 | 0.0 | 8.0 | 0.00 | 0.10 | 0.10 | 81 | 1008.3 |
| 20260506012505 | 17 | 49 | 1.6 | 8.0 | 0.00 | 0.10 | 0.10 | 81 | 1008.2 |
| 20260506012006 | 17 | 355 | 1.6 | 8.0 | 0.00 | 0.10 | 0.10 | 82 | 1008.0 |
| 20260506011504 | 17 | 348 | 1.6 | 8.0 | 0.00 | 0.10 | 0.10 | 82 | 1008.0 |
| 20260506011008 | 17 | 75 | 0.0 | 4.8 | 0.00 | 0.10 | 0.10 | 81 | 1007.8 |
| 20260506010503 | 17 | 277 | 0.0 | 3.2 | 0.00 | 0.10 | 0.10 | 81 | 1007.8 |
| 20260506010005 | 17 | 273 | 0.0 | 4.8 | 0.00 | 0.10 | 0.10 | 80 | 1007.9 |
| 20260506005505 | 17 | 273 | 0.0 | 4.8 | 0.00 | 0.10 | 0.10 | 80 | 1007.7 |
| 20260506005001 | 17 | 246 | 0.0 | 0.0 | 0.00 | 0.10 | 0.10 | 79 | 1007.3 |
| 20260506004505 | 17 | 246 | 0.0 | 0.0 | 0.00 | 0.10 | 0.10 | 78 | 1007.1 |
| 20260506004001 | 17 | 246 | 0.0 | 0.0 | 0.00 | 0.10 | 0.10 | 77 | 1007.0 |
| 20260506003501 | 17 | 246 | 0.0 | 0.0 | 0.00 | 0.10 | 0.10 | 77 | 1006.9 |
| 20260506003100 | 17 | 246 | 0.0 | 0.0 | 0.00 | 0.10 | 0.10 | 77 | 1006.9 |
| 20260506002601 | 17 | 246 | 0.0 | 0.0 | 0.00 | 0.10 | 0.10 | 77 | 1006.9 |
| 20260506002100 | 17 | 246 | 0.0 | 0.0 | 0.00 | 0.10 | 0.10 | 77 | 1006.8 |
| 20260506001602 | 17 | 246 | 0.0 | 0.0 | 0.00 | 0.10 | 0.10 | 77 | 1006.9 |
| 20260506001100 | 17 | 246 | 0.0 | 0.0 | 0.00 | 0.10 | 0.10 | 77 | 1006.8 |
| 20260506000600 | 18 | 246 | 0.0 | 0.0 | 0.00 | 0.10 | 0.10 | 77 | 1006.8 |
| 20260506000006 | 18 | 246 | 0.0 | 0.0 | 0.00 | 0.10 | 0.10 | 76 | 1006.7 |
| 20260505235559 | 18 | 246 | 0.0 | 0.0 | 0.00 | 0.10 | 0.10 | 76 | 1006.7 |
| 20260505235059 | 18 | 246 | 0.0 | 0.0 | 0.00 | 0.10 | 0.10 | 76 | 1006.7 |
| 20260505234601 | 18 | 246 | 0.0 | 0.0 | 0.00 | 0.10 | 0.10 | 76 | 1006.7 |
| 20260505234502 | 18 | 246 | 0.0 | 0.0 | 0.00 | 0.10 | 0.10 | 76 | 1006.8 |
| 20260505234059 | 18 | 246 | 0.0 | 0.0 | 0.00 | 0.10 | 0.10 | 76 | 1006.8 |
| 20260505234001 | 18 | 246 | 0.0 | 0.0 | 0.00 | 0.10 | 0.10 | 76 | 1006.8 |
| 20260505233558 | 18 | 246 | 0.0 | 0.0 | 0.00 | 0.10 | 0.10 | 76 | 1006.8 |
| 20260505233123 | 18 | 246 | 0.0 | 0.0 | 0.00 | 0.10 | 0.10 | 76 | 1006.8 |
| 20260505232558 | 18 | 246 | 0.0 | 0.0 | 0.00 | 0.10 | 0.10 | 76 | 1006.8 |
| 20260505232058 | 18 | 246 | 0.0 | 0.0 | 0.00 | 0.10 | 0.10 | 75 | 1006.8 |
| 20260505231558 | 18 | 246 | 0.0 | 0.0 | 0.00 | 0.10 | 0.10 | 75 | 1006.8 |
| 20260505231103 | 18 | 246 | 0.0 | 0.0 | 0.00 | 0.10 | 0.10 | 75 | 1006.8 |
| 20260505230557 | 19 | 246 | 0.0 | 0.0 | 0.00 | 0.10 | 0.10 | 74 | 1006.7 |
| 20260505230057 | 19 | 246 | 0.0 | 0.0 | 0.00 | 0.10 | 0.10 | 74 | 1006.6 |
| 20260505225557 | 19 | 246 | 0.0 | 0.0 | 0.00 | 0.10 | 0.10 | 73 | 1006.7 |
| 20260505225058 | 19 | 246 | 0.0 | 0.0 | 0.00 | 0.10 | 0.10 | 73 | 1006.7 |
| 20260505224557 | 19 | 246 | 0.0 | 0.0 | 0.00 | 0.10 | 0.10 | 73 | 1006.6 |
| 20260505224101 | 19 | 246 | 0.0 | 0.0 | 0.00 | 0.10 | 0.10 | 73 | 1006.5 |
| 20260505223557 | 19 | 246 | 0.0 | 1.6 | 0.00 | 0.10 | 0.10 | 72 | 1006.5 |
| 20260505223056 | 20 | 246 | 0.0 | 1.6 | 0.00 | 0.10 | 0.10 | 72 | 1006.5 |
| 20260505222556 | 20 | 246 | 0.0 | 4.8 | 0.00 | 0.10 | 0.10 | 72 | 1006.4 |
| 20260505222056 | 20 | 246 | 0.0 | 6.4 | 0.00 | 0.10 | 0.10 | 72 | 1006.3 |
| 20260505221602 | 20 | 247 | 3.2 | 11.3 | 0.00 | 0.10 | 0.10 | 71 | 1006.3 |
| 20260505221058 | 20 | 257 | 3.2 | 9.7 | 0.00 | 0.10 | 0.10 | 71 | 1006.8 |
| 20260505220554 | 20 | 234 | 1.6 | 8.0 | 0.00 | 0.10 | 0.10 | 71 | 1006.7 |
| 20260505220055 | 20 | 227 | 1.6 | 8.0 | 0.00 | 0.10 | 0.10 | 71 | 1006.4 |
| 20260505215554 | 20 | 273 | 0.0 | 0.0 | 0.00 | 0.10 | 0.10 | 70 | 1006.1 |
| 20260505215054 | 20 | 273 | 0.0 | 0.0 | 0.00 | 0.10 | 0.10 | 70 | 1005.8 |
| 20260505214554 | 20 | 269 | 0.0 | 0.0 | 0.00 | 0.10 | 0.10 | 70 | 1006.0 |
| 20260505214054 | 20 | 269 | 0.0 | 3.2 | 0.00 | 0.10 | 0.10 | 70 | 1006.0 |
| 20260505213553 | 20 | 273 | 0.0 | 3.2 | 0.00 | 0.10 | 0.10 | 71 | 1006.0 |
| 20260505213057 | 20 | 183 | 0.0 | 4.8 | 0.00 | 0.10 | 0.10 | 71 | 1005.8 |
| 20260505212553 | 20 | 183 | 0.0 | 4.8 | 0.00 | 0.10 | 0.10 | 71 | 1005.7 |
| 20260505212053 | 20 | 184 | 0.0 | 8.0 | 0.00 | 0.10 | 0.10 | 72 | 1005.8 |
| 20260505211553 | 20 | 170 | 3.2 | 8.0 | 0.00 | 0.10 | 0.10 | 72 | 1005.8 |
| 20260505211052 | 19 | 292 | 1.6 | 6.4 | 0.00 | 0.10 | 0.10 | 73 | 1005.8 |
| 20260505210555 | 19 | 132 | 0.0 | 6.4 | 0.00 | 0.10 | 0.10 | 74 | 1005.7 |
| 20260505210051 | 19 | 134 | 1.6 | 6.4 | 0.00 | 0.10 | 0.10 | 74 | 1005.7 |
| 20260505205552 | 19 | 218 | 1.6 | 8.0 | 0.00 | 0.10 | 0.10 | 76 | 1005.8 |
| 20260505205055 | 18 | 237 | 3.2 | 8.0 | 0.00 | 0.10 | 0.10 | 77 | 1005.9 |
| 20260505204551 | 18 | 171 | 0.0 | 11.3 | 0.00 | 0.10 | 0.10 | 77 | 1006.0 |
| 20260505204051 | 18 | 157 | 1.6 | 11.3 | 0.05 | 0.10 | 0.10 | 77 | 1006.0 |
| 20260505203553 | 18 | 203 | 0.0 | 6.4 | 0.05 | 0.10 | 0.10 | 77 | 1006.2 |
| 20260505203055 | 18 | 192 | 0.0 | 4.8 | 0.05 | 0.10 | 0.10 | 76 | 1006.3 |
| 20260505202548 | 18 | 208 | 1.6 | 6.4 | 0.05 | 0.10 | 0.10 | 75 | 1006.3 |
| 20260505202050 | 18 | 180 | 0.0 | 6.4 | 0.05 | 0.10 | 0.10 | 74 | 1006.3 |
| 20260505201551 | 19 | 244 | 0.0 | 6.4 | 0.05 | 0.10 | 0.10 | 73 | 1006.3 |
| 20260505201049 | 19 | 175 | 0.0 | 4.8 | 0.05 | 0.10 | 0.10 | 72 | 1006.3 |
| 20260505200549 | 19 | 178 | 0.0 | 11.3 | 0.05 | 0.10 | 0.10 | 71 | 1006.4 |
| 20260505200048 | 20 | 161 | 3.2 | 11.3 | 0.05 | 0.10 | 0.10 | 70 | 1006.2 |
| 20260505195548 | 20 | 216 | 0.0 | 27.4 | 0.05 | 0.10 | 0.10 | 68 | 1006.2 |
| 20260505195048 | 20 | 272 | 3.2 | 38.6 | 0.05 | 0.10 | 0.10 | 66 | 1006.5 |
| 20260505194555 | 21 | 230 | 12.9 | 59.5 | 0.05 | 0.10 | 0.10 | 61 | 1006.5 |
| 20260505194047 | 24 | 271 | 24.1 | 54.7 | 0.00 | 0.05 | 0.05 | 50 | 1006.4 |
| 20260505193546 | 25 | 215 | 16.1 | 37.0 | 0.00 | 0.05 | 0.05 | 36 | 1005.1 |
| 20260505193103 | 26 | 262 | 4.8 | 25.7 | 0.00 | 0.05 | 0.05 | 34 | 1004.5 |
| 20260505192546 | 26 | 215 | 8.0 | 25.7 | 0.00 | 0.05 | 0.05 | 33 | 1004.2 |
| 20260505192047 | 26 | 220 | 11.3 | 25.7 | 0.00 | 0.05 | 0.05 | 32 | 1004.1 |
| 20260505191546 | 26 | 259 | 8.0 | 38.6 | 0.00 | 0.05 | 0.05 | 33 | 1003.9 |
| 20260505191045 | 27 | 150 | 12.9 | 45.1 | 0.00 | 0.05 | 0.05 | 32 | 1003.9 |
| 20260505190545 | 27 | 254 | 24.1 | 45.1 | 0.00 | 0.05 | 0.05 | 32 | 1003.8 |
| 20260505190046 | 26 | 232 | 6.4 | 29.0 | 0.00 | 0.05 | 0.05 | 37 | 1003.9 |
| 20260505185545 | 26 | 250 | 11.3 | 27.4 | 0.00 | 0.05 | 0.05 | 38 | 1004.0 |
| 20260505185041 | 26 | 200 | 9.7 | 24.1 | 0.00 | 0.05 | 0.05 | 39 | 1004.1 |
| 20260505184540 | 25 | 230 | 8.0 | 24.1 | 0.00 | 0.05 | 0.05 | 40 | 1004.4 |
| 20260505184043 | 25 | 261 | 9.7 | 30.6 | 0.00 | 0.05 | 0.05 | 38 | 1004.6 |
| 20260505183539 | 25 | 350 | 11.3 | 30.6 | 0.00 | 0.05 | 0.05 | 40 | 1004.6 |
| 20260505183039 | 25 | 293 | 12.9 | 25.7 | 0.00 | 0.05 | 0.05 | 42 | 1004.7 |
| 20260505182538 | 25 | 263 | 4.8 | 25.7 | 0.00 | 0.05 | 0.05 | 45 | 1004.7 |
| 20260505182038 | 24 | 261 | 9.7 | 19.3 | 0.00 | 0.05 | 0.05 | 50 | 1004.9 |
| 20260505181536 | 24 | 211 | 4.8 | 14.5 | 0.00 | 0.05 | 0.05 | 52 | 1004.9 |
| 20260505181036 | 24 | 251 | 6.4 | 14.5 | 0.00 | 0.05 | 0.05 | 53 | 1005.2 |
| 20260505180534 | 24 | 217 | 3.2 | 14.5 | 0.00 | 0.05 | 0.05 | 54 | 1005.4 |
| 20260505180039 | 24 | 181 | 8.0 | 19.3 | 0.00 | 0.05 | 0.05 | 54 | 1005.5 |
| 20260505175534 | 24 | 218 | 6.4 | 29.0 | 0.00 | 0.05 | 0.05 | 51 | 1005.8 |
| 20260505175033 | 25 | 256 | 14.5 | 30.6 | 0.00 | 0.05 | 0.05 | 45 | 1005.8 |
| 20260505174533 | 25 | 228 | 11.3 | 24.1 | 0.00 | 0.05 | 0.05 | 44 | 1005.7 |
| 20260505174033 | 25 | 247 | 8.0 | 24.1 | 0.00 | 0.05 | 0.05 | 45 | 1005.7 |
| 20260505173533 | 24 | 214 | 14.5 | 29.0 | 0.00 | 0.05 | 0.05 | 45 | 1005.7 |
| 20260505173131 | 24 | 223 | 14.5 | 29.0 | 0.00 | 0.05 | 0.05 | 44 | 1005.6 |
| 20260505172532 | 25 | 230 | 11.3 | 25.7 | 0.00 | 0.05 | 0.05 | 44 | 1005.8 |
| 20260505172031 | 25 | 217 | 6.4 | 25.7 | 0.00 | 0.05 | 0.05 | 44 | 1005.8 |
| 20260505171531 | 25 | 235 | 4.8 | 20.9 | 0.00 | 0.05 | 0.05 | 43 | 1005.8 |
| 20260505171032 | 25 | 219 | 8.0 | 32.2 | 0.00 | 0.05 | 0.05 | 44 | 1005.8 |
| 20260505170532 | 25 | 278 | 12.9 | 32.2 | 0.00 | 0.05 | 0.05 | 43 | 1005.5 |
| 20260505170034 | 25 | 237 | 9.7 | 22.5 | 0.00 | 0.05 | 0.05 | 43 | 1005.5 |
| 20260505165531 | 25 | 292 | 8.0 | 30.6 | 0.00 | 0.05 | 0.05 | 43 | 1005.2 |
| 20260505165031 | 25 | 259 | 11.3 | 30.6 | 0.00 | 0.05 | 0.05 | 42 | 1005.4 |
| 20260505164537 | 25 | 13 | 6.4 | 29.0 | 0.00 | 0.05 | 0.05 | 43 | 1005.2 |
| 20260505164031 | 25 | 194 | 11.3 | 22.5 | 0.00 | 0.05 | 0.05 | 43 | 1005.4 |
| 20260505163530 | 25 | 130 | 9.7 | 19.3 | 0.00 | 0.05 | 0.05 | 43 | 1005.4 |
| 20260505163036 | 25 | 209 | 11.3 | 19.3 | 0.00 | 0.05 | 0.05 | 42 | 1005.6 |
| 20260505162528 | 25 | 292 | 4.8 | 25.7 | 0.00 | 0.05 | 0.05 | 41 | 1005.6 |
| 20260505162030 | 25 | 224 | 8.0 | 25.7 | 0.00 | 0.05 | 0.05 | 42 | 1005.8 |
| 20260505161527 | 25 | 228 | 8.0 | 32.2 | 0.00 | 0.05 | 0.05 | 42 | 1005.9 |
| 20260505161027 | 25 | 152 | 12.9 | 32.2 | 0.00 | 0.05 | 0.05 | 41 | 1005.9 |
| 20260505160529 | 25 | 227 | 11.3 | 29.0 | 0.00 | 0.05 | 0.05 | 41 | 1005.9 |